createdAt,value
2022-10-06T00:02:03.911Z,5.82
2022-10-06T00:05:06.368Z,5.77
2022-10-06T00:08:10.268Z,5.71
2022-10-06T00:11:13.836Z,5.69
2022-10-06T00:14:15.651Z,5.64
2022-10-06T00:17:17.574Z,5.59
2022-10-06T00:20:20.173Z,5.53
2022-10-06T00:23:22.027Z,5.48
2022-10-06T00:26:24.431Z,5.41
2022-10-06T00:29:26.484Z,5.33
2022-10-06T00:32:28.186Z,5.30
2022-10-06T00:35:33.901Z,5.25
2022-10-06T00:38:35.949Z,5.21
2022-10-06T00:41:39.379Z,5.13
2022-10-06T00:44:41.716Z,5.05
2022-10-06T00:47:43.503Z,4.98
2022-10-06T00:50:46.057Z,4.95
2022-10-06T00:53:48.974Z,4.93
2022-10-06T00:56:51.084Z,4.90
2022-10-06T00:59:53.670Z,4.81
2022-10-06T01:03:07.708Z,4.69
2022-10-06T01:06:09.893Z,4.58
2022-10-06T01:09:13.897Z,4.48
2022-10-06T01:12:16.862Z,4.37
2022-10-06T01:15:20.074Z,4.30
2022-10-06T01:18:23.001Z,4.23
2022-10-06T01:21:32.803Z,4.17
2022-10-06T01:24:35.054Z,4.08
2022-10-06T01:27:38.435Z,4.06
2022-10-06T01:30:53.061Z,4.07
2022-10-06T01:33:55.858Z,4.04
2022-10-06T01:36:57.638Z,3.98
2022-10-06T01:39:59.416Z,3.91
2022-10-06T01:43:01.181Z,3.92
2022-10-06T01:46:03.035Z,3.89
2022-10-06T01:49:04.897Z,3.75
2022-10-06T01:52:06.909Z,3.75
2022-10-06T01:55:09.240Z,3.88
2022-10-06T01:58:11.773Z,3.95
2022-10-06T02:01:13.811Z,4.02
2022-10-06T02:04:16.424Z,4.10
2022-10-06T02:07:19.172Z,4.18
2022-10-06T02:10:21.104Z,4.17
2022-10-06T02:13:28.113Z,4.16
2022-10-06T02:16:31.609Z,4.18
2022-10-06T02:19:33.339Z,4.09
2022-10-06T02:22:39.868Z,4.01
2022-10-06T02:25:41.640Z,4.18
2022-10-06T02:28:44.944Z,4.31
2022-10-06T02:31:47.128Z,4.47
2022-10-06T02:34:49.958Z,4.53
2022-10-06T02:37:51.651Z,4.52
2022-10-06T02:40:57.745Z,4.58
2022-10-06T02:43:59.614Z,4.65
2022-10-06T02:47:01.349Z,4.70
2022-10-06T02:50:06.253Z,4.61
2022-10-06T02:53:12.648Z,4.46
2022-10-06T02:56:17.430Z,4.20
2022-10-06T02:59:19.263Z,4.04
2022-10-06T03:02:21.137Z,3.91
2022-10-06T03:05:23.306Z,3.83
2022-10-06T03:08:25.268Z,3.75
2022-10-06T03:11:33.171Z,3.69
2022-10-06T03:14:35.173Z,3.67
2022-10-06T03:17:36.906Z,3.61
2022-10-06T03:20:38.823Z,3.60
2022-10-06T03:23:42.634Z,3.59
2022-10-06T03:26:47.765Z,3.58
2022-10-06T03:29:49.776Z,3.58
2022-10-06T03:32:52.662Z,3.68
2022-10-06T03:36:07.179Z,3.85
2022-10-06T03:39:09.173Z,3.97
2022-10-06T03:42:10.985Z,3.98
2022-10-06T03:45:12.971Z,3.94
2022-10-06T03:48:14.772Z,3.78
2022-10-06T03:51:27.416Z,3.64
2022-10-06T03:54:29.195Z,3.52
2022-10-06T03:57:31.097Z,3.45
2022-10-06T04:00:32.936Z,3.39
2022-10-06T04:03:35.114Z,3.35
2022-10-06T04:06:39.171Z,3.31
2022-10-06T04:09:41.189Z,3.32
2022-10-06T04:12:43.003Z,3.33
2022-10-06T04:15:46.105Z,3.36
2022-10-06T04:18:54.020Z,3.41
2022-10-06T04:21:56.214Z,3.55
2022-10-06T04:24:58.030Z,3.77
2022-10-06T04:28:00.286Z,3.79
2022-10-06T04:31:02.223Z,3.71
2022-10-06T04:34:06.019Z,3.57
2022-10-06T04:37:07.785Z,3.49
2022-10-06T04:40:09.995Z,3.30
2022-10-06T04:43:14.930Z,3.29
2022-10-06T04:46:41.423Z,3.45
2022-10-06T04:49:39.759Z,3.66
2022-10-06T04:52:41.593Z,3.73
2022-10-06T04:55:43.298Z,3.75
2022-10-06T04:58:46.214Z,3.63
2022-10-06T05:01:48.206Z,3.61
2022-10-06T05:04:50.026Z,3.56
2022-10-06T05:07:51.782Z,3.57
2022-10-06T05:11:00.482Z,3.63
2022-10-06T05:14:02.641Z,3.54
2022-10-06T05:17:04.437Z,3.48
2022-10-06T05:20:06.783Z,3.52
2022-10-06T05:23:08.596Z,3.89
2022-10-06T05:26:15.819Z,4.41
2022-10-06T05:29:17.599Z,4.95
2022-10-06T05:32:19.415Z,5.45
2022-10-06T05:35:21.701Z,5.96
2022-10-06T05:38:24.330Z,6.52
2022-10-06T05:41:29.010Z,7.00
2022-10-06T05:44:30.830Z,7.46
2022-10-06T05:47:32.699Z,7.89
2022-10-06T05:50:34.506Z,8.24
2022-10-06T05:53:37.199Z,8.47
2022-10-06T05:56:39.221Z,8.87
2022-10-06T05:59:41.138Z,9.25
2022-10-06T06:02:43.364Z,9.59
2022-10-06T06:05:46.002Z,10.01
2022-10-06T06:08:49.135Z,10.47
2022-10-06T06:11:53.176Z,10.84
2022-10-06T06:15:13.325Z,11.17
2022-10-06T06:18:15.090Z,11.61
2022-10-06T06:21:17.141Z,12.09
2022-10-06T06:24:19.017Z,12.51
2022-10-06T06:27:21.137Z,12.78
2022-10-06T06:30:24.030Z,12.96
2022-10-06T06:33:25.842Z,13.11
2022-10-06T06:36:32.079Z,13.33
2022-10-06T06:39:34.068Z,13.56
2022-10-06T06:42:35.840Z,13.96
2022-10-06T06:45:37.705Z,14.32
2022-10-06T06:48:39.664Z,14.75
2022-10-06T06:51:43.573Z,15.18
2022-10-06T06:54:46.358Z,15.07
2022-10-06T06:57:49.724Z,14.32
2022-10-06T07:00:51.786Z,13.91
2022-10-06T07:03:58.307Z,13.70
2022-10-06T07:07:00.906Z,14.09
2022-10-06T07:10:02.761Z,14.75
2022-10-06T07:13:06.303Z,15.52
2022-10-06T07:16:31.297Z,16.32
2022-10-06T07:19:51.297Z,16.77
2022-10-06T07:23:12.141Z,17.09
2022-10-06T07:26:13.955Z,17.16
2022-10-06T07:29:15.791Z,16.71
2022-10-06T07:32:21.433Z,16.42
2022-10-06T07:35:24.543Z,16.29
2022-10-06T07:38:27.684Z,16.05
2022-10-06T07:41:31.157Z,15.65
2022-10-06T07:44:32.913Z,15.37
2022-10-06T07:47:38.277Z,15.05
2022-10-06T07:50:41.428Z,14.79
2022-10-06T07:53:53.702Z,14.59
2022-10-06T07:56:56.009Z,14.57
2022-10-06T08:00:02.090Z,14.55
2022-10-06T08:03:05.259Z,14.53
2022-10-06T08:06:12.622Z,14.57
2022-10-06T08:09:14.605Z,14.56
2022-10-06T08:12:34.894Z,14.75
2022-10-06T08:15:36.932Z,15.23
2022-10-06T08:18:46.551Z,15.33
2022-10-06T08:21:48.912Z,15.11
2022-10-06T08:25:05.366Z,15.08
2022-10-06T08:28:08.698Z,15.02
2022-10-06T08:31:15.773Z,15.08
2022-10-06T08:34:18.464Z,15.14
2022-10-06T08:37:27.496Z,15.92
2022-10-06T08:40:29.647Z,16.90
2022-10-06T08:43:32.648Z,17.73
2022-10-06T08:46:40.639Z,18.44
2022-10-06T08:49:46.062Z,19.09
2022-10-06T08:52:59.771Z,19.68
2022-10-06T08:56:18.156Z,19.90
2022-10-06T08:59:20.611Z,20.06
2022-10-06T09:02:32.534Z,20.11
2022-10-06T09:05:35.128Z,20.03
2022-10-06T09:08:43.826Z,19.85
2022-10-06T09:12:04.360Z,19.62
2022-10-06T09:15:15.064Z,19.38
2022-10-06T09:18:23.162Z,19.68
2022-10-06T09:21:35.415Z,19.69
2022-10-06T09:24:47.227Z,19.37
2022-10-06T09:27:55.527Z,19.10
2022-10-06T09:31:01.653Z,18.72
2022-10-06T09:34:21.839Z,18.46
2022-10-06T09:37:24.020Z,18.36
2022-10-06T09:40:54.373Z,18.42
2022-10-06T09:44:02.605Z,19.02
2022-10-06T09:47:23.774Z,19.63
2022-10-06T09:50:27.800Z,20.01
2022-10-06T09:53:30.877Z,20.17
2022-10-06T09:56:36.437Z,20.29
2022-10-06T09:59:43.061Z,20.66
2022-10-06T10:02:45.192Z,20.68
2022-10-06T10:05:51.703Z,20.32
2022-10-06T10:09:24.874Z,20.08
2022-10-06T10:12:30.981Z,19.83
2022-10-06T10:15:54.312Z,19.44
2022-10-06T10:18:56.187Z,19.32
2022-10-06T10:21:58.075Z,19.38
2022-10-06T10:25:14.058Z,19.61
2022-10-06T10:28:38.224Z,20.16
2022-10-06T10:31:50.289Z,21.21
2022-10-06T10:35:06.503Z,21.74
2022-10-06T10:38:20.964Z,22.23
2022-10-06T10:41:30.088Z,22.57
2022-10-06T10:44:35.345Z,22.74
2022-10-06T10:47:39.157Z,22.15
2022-10-06T10:50:46.759Z,21.48
2022-10-06T10:53:52.642Z,21.27
2022-10-06T10:56:54.540Z,21.94
2022-10-06T11:00:00.949Z,22.36
2022-10-06T11:03:02.942Z,22.75
2022-10-06T11:06:25.076Z,22.95
2022-10-06T11:10:04.930Z,23.09
2022-10-06T11:13:22.340Z,23.12
2022-10-06T11:16:27.251Z,22.59
2022-10-06T11:19:42.133Z,21.91
2022-10-06T11:22:50.687Z,21.55
2022-10-06T11:25:56.847Z,21.46
2022-10-06T11:29:15.986Z,21.53
2022-10-06T11:32:29.845Z,21.39
2022-10-06T11:35:41.381Z,21.41
2022-10-06T11:38:49.941Z,21.57
2022-10-06T11:42:03.579Z,22.03
2022-10-06T11:45:14.006Z,22.33
2022-10-06T11:48:21.260Z,22.72
2022-10-06T11:51:26.433Z,22.67
2022-10-06T11:54:40.481Z,22.29
2022-10-06T11:58:23.524Z,22.01
2022-10-06T12:01:28.271Z,21.94
2022-10-06T12:04:30.430Z,21.85
2022-10-06T12:07:52.422Z,21.90
2022-10-06T12:10:55.199Z,21.84
2022-10-06T12:15:31.794Z,21.81
2022-10-06T12:17:25.967Z,21.88
2022-10-06T12:20:37.103Z,21.67
2022-10-06T12:24:02.416Z,21.39
2022-10-06T12:27:29.515Z,21.18
2022-10-06T12:30:34.225Z,20.96
2022-10-06T12:33:39.028Z,20.73
2022-10-06T12:36:44.871Z,20.62
2022-10-06T12:39:46.935Z,20.48
2022-10-06T12:42:48.763Z,20.33
2022-10-06T12:45:56.848Z,20.20
2022-10-06T12:49:05.084Z,20.14
2022-10-06T12:52:39.436Z,20.12
2022-10-06T12:55:48.245Z,20.06
2022-10-06T12:58:50.147Z,20.01
2022-10-06T13:01:55.404Z,19.94
2022-10-06T13:05:11.013Z,19.89
2022-10-06T13:08:34.362Z,19.85
2022-10-06T13:11:36.343Z,19.90
2022-10-06T13:14:38.174Z,20.00
2022-10-06T13:17:46.823Z,20.26
2022-10-06T13:20:51.735Z,20.51
2022-10-06T13:23:53.492Z,20.71
2022-10-06T13:26:56.400Z,20.85
2022-10-06T13:30:21.335Z,20.92
2022-10-06T13:33:24.287Z,20.95
2022-10-06T13:36:28.260Z,20.87
2022-10-06T13:39:32.998Z,20.81
2022-10-06T13:42:35.030Z,20.75
2022-10-06T13:45:41.927Z,20.65
2022-10-06T13:48:50.053Z,20.52
2022-10-06T13:52:01.181Z,20.43
2022-10-06T13:55:04.858Z,20.35
2022-10-06T13:58:10.280Z,20.19
2022-10-06T14:01:12.247Z,20.14
2022-10-06T14:04:14.735Z,20.15
2022-10-06T14:07:17.179Z,20.14
2022-10-06T14:10:21.219Z,20.23
2022-10-06T14:13:24.144Z,20.26
2022-10-06T14:16:26.916Z,20.16
2022-10-06T14:19:37.458Z,20.04
2022-10-06T14:22:39.370Z,20.01
2022-10-06T14:25:41.111Z,20.21
2022-10-06T14:28:53.124Z,20.39
2022-10-06T14:31:54.910Z,20.49
2022-10-06T14:34:56.770Z,20.60
2022-10-06T14:37:59.139Z,20.59
2022-10-06T14:41:03.159Z,20.64
2022-10-06T14:44:11.564Z,20.70
2022-10-06T14:47:13.346Z,20.83
2022-10-06T14:50:15.644Z,20.98
2022-10-06T14:53:17.822Z,20.88
2022-10-06T14:56:20.266Z,20.66
2022-10-06T14:59:22.278Z,20.52
2022-10-06T15:02:24.143Z,20.43
2022-10-06T15:05:26.058Z,20.27
2022-10-06T15:08:28.216Z,20.04
2022-10-06T15:11:30.458Z,19.85
2022-10-06T15:14:33.680Z,19.69
2022-10-06T15:17:35.910Z,19.54
2022-10-06T15:20:38.397Z,19.42
2022-10-06T15:23:40.197Z,19.30
2022-10-06T15:27:01.409Z,19.15
2022-10-06T15:30:03.508Z,19.00
2022-10-06T15:33:06.214Z,18.88
2022-10-06T15:36:16.978Z,18.77
2022-10-06T15:39:21.165Z,18.66
2022-10-06T15:42:24.863Z,18.58
2022-10-06T15:45:26.709Z,18.49
2022-10-06T15:48:28.471Z,18.42
2022-10-06T15:51:34.347Z,18.36
2022-10-06T15:54:40.911Z,18.30
2022-10-06T15:57:42.625Z,18.23
2022-10-06T16:00:44.471Z,18.18
2022-10-06T16:03:46.493Z,18.11
2022-10-06T16:06:54.558Z,18.03
2022-10-06T16:09:56.386Z,17.96
2022-10-06T16:12:58.309Z,17.90
2022-10-06T16:16:00.546Z,17.83
2022-10-06T16:19:02.491Z,17.76
2022-10-06T16:22:06.171Z,17.71
2022-10-06T16:25:08.240Z,17.66
2022-10-06T16:28:10.306Z,17.61
2022-10-06T16:31:12.268Z,17.54
2022-10-06T16:34:14.277Z,17.49
2022-10-06T16:37:16.234Z,17.45
2022-10-06T16:40:18.113Z,17.41
2022-10-06T16:43:19.835Z,17.37
2022-10-06T16:46:27.928Z,17.32
2022-10-06T16:49:29.705Z,17.22
2022-10-06T16:52:31.596Z,17.14
2022-10-06T16:55:33.287Z,17.06
2022-10-06T16:58:45.551Z,16.98
2022-10-06T17:01:48.409Z,16.91
2022-10-06T17:04:50.516Z,16.85
2022-10-06T17:07:56.930Z,16.78
2022-10-06T17:11:10.702Z,16.61
2022-10-06T17:14:13.005Z,16.48
2022-10-06T17:17:14.883Z,16.36
2022-10-06T17:20:16.830Z,16.24
2022-10-06T17:23:18.629Z,16.11
2022-10-06T17:26:22.429Z,15.99
2022-10-06T17:29:24.538Z,15.87
2022-10-06T17:32:26.279Z,15.77
2022-10-06T17:35:28.187Z,15.68
2022-10-06T17:38:31.850Z,15.60
2022-10-06T17:41:37.378Z,15.56
2022-10-06T17:44:39.490Z,15.64
2022-10-06T17:47:41.686Z,15.59
2022-10-06T17:50:43.439Z,15.30
2022-10-06T17:53:49.223Z,15.13
2022-10-06T17:56:53.267Z,15.00
2022-10-06T17:59:59.096Z,14.85
2022-10-06T18:03:00.869Z,14.75
2022-10-06T18:06:03.895Z,14.77
2022-10-06T18:09:06.892Z,14.76
2022-10-06T18:12:10.605Z,14.65
2022-10-06T18:15:12.438Z,14.58
2022-10-06T18:18:14.382Z,14.48
2022-10-06T18:21:17.405Z,14.40
2022-10-06T18:24:21.712Z,14.31
2022-10-06T18:27:24.339Z,14.25
2022-10-06T18:30:29.388Z,14.24
2022-10-06T18:36:53.222Z,14.30
2022-10-06T18:39:55.360Z,14.34
2022-10-06T18:42:57.083Z,14.40
2022-10-06T18:46:22.534Z,14.40
2022-10-06T18:49:25.493Z,14.42
2022-10-06T18:52:27.467Z,14.42
2022-10-06T18:55:29.973Z,14.41
2022-10-06T18:58:32.368Z,14.33
2022-10-06T19:01:35.163Z,14.17
2022-10-06T19:04:37.325Z,14.00
2022-10-06T19:07:39.178Z,13.89
2022-10-06T19:11:01.000Z,13.79
2022-10-06T19:14:02.780Z,13.73
2022-10-06T19:17:07.265Z,13.75
2022-10-06T19:20:10.969Z,13.83
2022-10-06T19:23:15.059Z,13.90
2022-10-06T19:26:16.906Z,14.03
2022-10-06T19:29:23.934Z,14.16
2022-10-06T19:32:28.531Z,14.26
2022-10-06T19:35:30.550Z,14.34
2022-10-06T19:38:32.754Z,14.41
2022-10-06T19:41:56.995Z,14.49
2022-10-06T19:44:58.928Z,14.56
2022-10-06T19:48:00.868Z,14.58
2022-10-06T19:51:14.428Z,14.57
2022-10-06T19:54:18.414Z,14.53
2022-10-06T19:57:20.252Z,14.47
2022-10-06T20:00:22.001Z,14.40
2022-10-06T20:03:51.821Z,14.36
2022-10-06T20:06:53.900Z,14.30
2022-10-06T20:09:55.903Z,14.25
2022-10-06T20:12:58.783Z,14.21
2022-10-06T20:16:02.027Z,14.17
2022-10-06T20:19:05.607Z,14.13
2022-10-06T20:22:07.496Z,14.09
2022-10-06T20:25:09.575Z,14.04
2022-10-06T20:28:11.437Z,14.00
2022-10-06T20:31:28.310Z,13.95
2022-10-06T20:34:32.314Z,13.90
2022-10-06T20:37:34.312Z,13.85
2022-10-06T20:40:49.262Z,13.81
2022-10-06T20:43:54.052Z,13.74
2022-10-06T20:46:55.809Z,13.70
2022-10-06T20:49:57.515Z,13.66
2022-10-06T20:52:59.355Z,13.64
2022-10-06T20:56:01.743Z,13.61
2022-10-06T20:59:07.778Z,13.60
2022-10-06T21:02:09.901Z,13.59
2022-10-06T21:05:11.956Z,13.58
2022-10-06T21:08:13.668Z,13.58
2022-10-06T21:11:17.503Z,13.57
2022-10-06T21:14:20.053Z,13.57
2022-10-06T21:17:21.941Z,13.54
2022-10-06T21:20:23.679Z,13.50
2022-10-06T21:23:25.554Z,13.43
2022-10-06T21:26:27.945Z,13.27
2022-10-06T21:29:29.604Z,13.14
2022-10-06T21:32:32.223Z,13.04
2022-10-06T21:35:33.970Z,12.97
2022-10-06T21:38:41.914Z,12.92
2022-10-06T21:41:43.701Z,12.84
2022-10-06T21:44:45.469Z,12.76
2022-10-06T21:47:47.279Z,12.63
2022-10-06T21:50:55.195Z,12.53
2022-10-06T21:53:57.591Z,12.44
2022-10-06T21:56:59.353Z,12.41
2022-10-06T22:00:01.110Z,12.40
2022-10-06T22:03:02.909Z,12.42
2022-10-06T22:06:06.278Z,12.42
2022-10-06T22:09:09.617Z,12.41
2022-10-06T22:12:11.433Z,12.39
2022-10-06T22:15:13.174Z,12.36
2022-10-06T22:18:17.937Z,12.33
2022-10-06T22:21:28.488Z,12.31
2022-10-06T22:24:30.286Z,12.25
2022-10-06T22:27:32.440Z,12.18
2022-10-06T22:30:34.286Z,12.13
2022-10-06T22:33:38.157Z,12.10
2022-10-06T22:36:40.192Z,12.05
2022-10-06T22:39:42.024Z,11.99
2022-10-06T22:42:43.706Z,11.93
2022-10-06T22:45:45.618Z,11.86
2022-10-06T22:48:47.361Z,11.81
2022-10-06T22:51:49.161Z,11.78
2022-10-06T22:54:51.005Z,11.83
2022-10-06T22:57:52.690Z,11.84
2022-10-06T23:00:54.578Z,11.78
2022-10-06T23:03:57.088Z,11.73
2022-10-06T23:07:18.690Z,11.65
2022-10-06T23:10:21.581Z,11.61
2022-10-06T23:13:23.265Z,11.59
2022-10-06T23:16:25.342Z,11.59
2022-10-06T23:19:27.229Z,11.54
2022-10-06T23:22:29.023Z,11.46
2022-10-06T23:25:30.793Z,11.40
2022-10-06T23:28:32.700Z,11.32
2022-10-06T23:31:34.633Z,11.23
2022-10-06T23:34:37.229Z,11.11
2022-10-06T23:37:39.013Z,11.00
2022-10-06T23:40:40.718Z,10.92
2022-10-06T23:43:42.845Z,10.84
2022-10-06T23:46:44.935Z,10.78
2022-10-06T23:49:49.799Z,10.73
2022-10-06T23:52:51.516Z,10.67
2022-10-06T23:55:53.960Z,10.55
2022-10-06T23:58:55.605Z,10.38
